createdAt,value
2019-02-24T00:00:56.621Z,3.00
2019-02-24T00:03:25.544Z,2.90
2019-02-24T00:05:54.397Z,2.80
2019-02-24T00:08:23.636Z,2.80
2019-02-24T00:10:52.810Z,2.70
2019-02-24T00:13:22.357Z,2.60
2019-02-24T00:15:51.287Z,2.60
2019-02-24T00:18:20.248Z,2.50
2019-02-24T00:20:49.525Z,2.50
2019-02-24T00:23:18.868Z,2.50
2019-02-24T00:25:47.906Z,2.50
2019-02-24T00:28:17.190Z,2.50
2019-02-24T00:30:46.183Z,2.40
2019-02-24T00:33:16.610Z,2.40
2019-02-24T00:35:46.069Z,2.40
2019-02-24T00:38:16.273Z,2.40
2019-02-24T00:40:45.513Z,2.30
2019-02-24T00:43:16.733Z,2.40
2019-02-24T00:45:45.315Z,2.50
2019-02-24T00:48:16.044Z,2.40
2019-02-24T00:50:45.078Z,2.30
2019-02-24T00:53:14.156Z,2.30
2019-02-24T00:55:44.690Z,2.30
2019-02-24T00:58:16.378Z,2.30
2019-02-24T01:00:49.905Z,2.10
2019-02-24T01:03:18.998Z,2.10
2019-02-24T01:05:48.650Z,2.00
2019-02-24T01:08:20.566Z,2.00
2019-02-24T01:10:50.457Z,1.90
2019-02-24T01:13:19.311Z,2.00
2019-02-24T01:15:48.195Z,2.00
2019-02-24T01:18:17.182Z,2.00
2019-02-24T01:20:46.084Z,1.90
2019-02-24T01:23:15.074Z,1.90
2019-02-24T01:25:44.074Z,1.90
2019-02-24T01:28:13.015Z,1.90
2019-02-24T01:30:41.953Z,1.90
2019-02-24T01:33:10.838Z,1.90
2019-02-24T01:35:39.762Z,1.90
2019-02-24T01:38:08.721Z,1.80
2019-02-24T01:40:37.559Z,1.90
2019-02-24T01:43:06.514Z,1.90
2019-02-24T01:45:35.422Z,1.90
2019-02-24T01:48:04.347Z,1.80
2019-02-24T01:50:33.392Z,1.80
2019-02-24T01:53:05.031Z,1.80
2019-02-24T01:55:36.854Z,1.90
2019-02-24T01:58:06.949Z,1.90
2019-02-24T02:00:36.004Z,2.10
2019-02-24T02:03:06.534Z,2.20
2019-02-24T02:05:35.432Z,2.00
2019-02-24T02:08:04.551Z,2.00
2019-02-24T02:10:33.515Z,1.80
2019-02-24T02:13:02.403Z,1.90
2019-02-24T02:15:31.331Z,1.80
2019-02-24T02:18:00.294Z,1.80
2019-02-24T02:20:29.126Z,1.80
2019-02-24T02:22:58.051Z,1.70
2019-02-24T02:25:26.957Z,1.80
2019-02-24T02:27:55.875Z,1.70
2019-02-24T02:30:24.747Z,1.70
2019-02-24T02:32:53.711Z,1.70
2019-02-24T02:35:22.573Z,1.90
2019-02-24T02:37:51.480Z,1.90
2019-02-24T02:40:20.465Z,1.90
2019-02-24T02:42:49.389Z,1.80
2019-02-24T02:45:19.905Z,1.80
2019-02-24T02:47:51.520Z,1.80
2019-02-24T02:50:22.376Z,1.70
2019-02-24T02:52:53.824Z,1.70
2019-02-24T02:55:22.780Z,1.80
2019-02-24T02:57:51.651Z,1.70
2019-02-24T03:00:31.004Z,1.70
2019-02-24T03:02:59.965Z,1.70
2019-02-24T03:05:28.911Z,1.70
2019-02-24T03:07:59.419Z,1.80
2019-02-24T03:10:28.280Z,1.70
2019-02-24T03:12:57.389Z,1.80
2019-02-24T03:15:26.318Z,1.70
2019-02-24T03:17:55.184Z,1.70
2019-02-24T03:20:24.143Z,1.60
2019-02-24T03:22:53.107Z,1.60
2019-02-24T03:25:22.027Z,1.60
2019-02-24T03:27:52.495Z,1.60
2019-02-24T03:30:23.095Z,1.60
2019-02-24T03:32:51.977Z,1.50
2019-02-24T03:35:20.914Z,1.40
2019-02-24T03:37:49.844Z,1.50
2019-02-24T03:40:18.746Z,1.50
2019-02-24T03:42:47.735Z,1.50
2019-02-24T03:45:16.674Z,1.40
2019-02-24T03:47:45.561Z,1.40
2019-02-24T03:50:14.556Z,1.40
2019-02-24T03:52:43.500Z,1.40
2019-02-24T03:55:12.419Z,1.40
2019-02-24T03:57:41.394Z,1.40
2019-02-24T04:00:10.353Z,1.40
2019-02-24T04:02:39.347Z,1.30
2019-02-24T04:05:08.254Z,1.30
2019-02-24T04:07:37.272Z,1.40
2019-02-24T04:10:11.845Z,1.40
2019-02-24T04:12:40.825Z,1.50
2019-02-24T04:15:09.721Z,1.50
2019-02-24T04:17:38.505Z,1.40
2019-02-24T04:20:07.742Z,1.40
2019-02-24T04:22:36.699Z,1.50
2019-02-24T04:25:05.805Z,1.50
2019-02-24T04:27:34.771Z,1.40
2019-02-24T04:30:04.136Z,1.30
2019-02-24T04:32:36.129Z,1.10
2019-02-24T04:35:14.915Z,0.90
2019-02-24T04:37:43.839Z,0.80
2019-02-24T04:40:14.445Z,0.80
2019-02-24T04:42:43.431Z,0.80
2019-02-24T04:45:12.424Z,0.80
2019-02-24T04:47:42.510Z,0.80
2019-02-24T04:50:11.463Z,0.80
2019-02-24T04:52:40.389Z,0.90
2019-02-24T04:55:15.448Z,0.80
2019-02-24T04:57:44.341Z,0.90
2019-02-24T05:00:13.331Z,0.90
2019-02-24T05:02:42.148Z,0.80
2019-02-24T05:05:11.026Z,0.80
2019-02-24T05:07:41.431Z,0.60
2019-02-24T05:10:10.320Z,0.60
2019-02-24T05:12:39.220Z,0.50
2019-02-24T05:15:09.726Z,0.50
2019-02-24T05:17:38.832Z,0.50
2019-02-24T05:20:08.914Z,0.60
2019-02-24T05:22:40.617Z,0.80
2019-02-24T05:25:09.580Z,0.80
2019-02-24T05:27:38.450Z,0.80
2019-02-24T05:30:07.410Z,0.90
2019-02-24T05:32:36.346Z,0.90
2019-02-24T05:35:05.536Z,0.90
2019-02-24T05:37:34.477Z,0.80
2019-02-24T05:40:03.475Z,0.60
2019-02-24T05:42:33.899Z,0.70
2019-02-24T05:45:02.744Z,0.50
2019-02-24T05:47:31.687Z,0.50
2019-02-24T05:50:03.062Z,0.40
2019-02-24T05:52:32.072Z,0.40
2019-02-24T05:55:01.006Z,0.60
2019-02-24T05:57:32.252Z,0.50
2019-02-24T06:00:00.671Z,0.50
2019-02-24T06:02:29.750Z,0.50
2019-02-24T06:04:58.612Z,0.50
2019-02-24T06:07:27.483Z,0.60
2019-02-24T06:09:56.475Z,0.70
2019-02-24T06:12:25.399Z,0.80
2019-02-24T06:14:54.290Z,0.80
2019-02-24T06:17:23.241Z,1.00
2019-02-24T06:19:52.217Z,1.00
2019-02-24T06:22:21.161Z,1.10
2019-02-24T06:24:51.583Z,1.10
2019-02-24T06:27:20.563Z,1.20
2019-02-24T06:29:49.511Z,1.20
2019-02-24T06:32:18.464Z,1.20
2019-02-24T06:34:47.359Z,1.30
2019-02-24T06:37:16.276Z,1.30
2019-02-24T06:39:46.695Z,1.30
2019-02-24T06:42:16.684Z,1.40
2019-02-24T06:44:47.081Z,1.50
2019-02-24T06:47:16.015Z,1.50
2019-02-24T06:49:44.910Z,1.50
2019-02-24T06:52:15.773Z,1.50
2019-02-24T06:54:44.707Z,1.50
2019-02-24T06:57:13.609Z,1.60
2019-02-24T06:59:42.565Z,1.60
2019-02-24T07:02:11.458Z,1.60
2019-02-24T07:04:40.395Z,1.60
2019-02-24T07:07:09.376Z,1.60
2019-02-24T07:09:38.310Z,1.70
2019-02-24T07:12:07.195Z,1.80
2019-02-24T07:14:36.205Z,1.80
2019-02-24T07:17:05.122Z,1.90
2019-02-24T07:19:35.292Z,1.90
2019-02-24T07:22:06.280Z,2.00
2019-02-24T07:24:34.815Z,2.10
2019-02-24T07:27:03.772Z,2.00
2019-02-24T07:29:32.672Z,2.10
2019-02-24T07:32:01.621Z,2.20
2019-02-24T07:34:30.475Z,2.20
2019-02-24T07:36:59.439Z,2.30
2019-02-24T07:39:30.427Z,2.40
2019-02-24T07:41:59.349Z,2.50
2019-02-24T07:44:29.283Z,2.60
2019-02-24T07:46:59.223Z,2.60
2019-02-24T07:49:28.064Z,2.60
2019-02-24T07:51:57.083Z,2.70
2019-02-24T07:54:27.728Z,2.70
2019-02-24T07:56:56.594Z,2.80
2019-02-24T07:59:25.490Z,2.90
2019-02-24T08:01:54.795Z,3.00
2019-02-24T08:04:23.658Z,3.10
2019-02-24T08:06:52.618Z,3.30
2019-02-24T08:09:24.902Z,3.30
2019-02-24T08:11:53.871Z,3.50
2019-02-24T08:14:22.732Z,3.50
2019-02-24T08:16:51.656Z,3.60
2019-02-24T08:19:23.083Z,3.80
2019-02-24T08:21:52.041Z,3.90
2019-02-24T08:24:20.982Z,4.00
2019-02-24T08:26:49.994Z,4.10
2019-02-24T08:29:25.128Z,4.10
2019-02-24T08:31:53.964Z,4.20
2019-02-24T08:34:22.964Z,4.40
2019-02-24T08:36:51.941Z,4.50
2019-02-24T08:39:23.964Z,7.50
2019-02-24T08:41:52.870Z,12.30
2019-02-24T08:44:22.298Z,15.70
2019-02-24T08:46:51.202Z,17.50
2019-02-24T08:49:20.128Z,19.20
2019-02-24T08:51:49.017Z,20.70
2019-02-24T08:54:20.723Z,21.50
2019-02-24T08:56:49.629Z,23.10
2019-02-24T08:59:18.532Z,24.30
2019-02-24T09:01:47.440Z,24.40
2019-02-24T09:04:16.367Z,25.40
2019-02-24T09:06:45.412Z,27.00
2019-02-24T09:09:14.389Z,26.70
2019-02-24T09:11:43.353Z,28.20
2019-02-24T09:14:12.303Z,28.90
2019-02-24T09:16:41.230Z,29.90
2019-02-24T09:19:13.035Z,31.40
2019-02-24T09:21:41.958Z,31.50
2019-02-24T09:24:10.864Z,32.10
2019-02-24T09:26:39.810Z,32.10
2019-02-24T09:29:08.740Z,32.40
2019-02-24T09:31:40.421Z,33.70
2019-02-24T09:34:11.325Z,34.00
2019-02-24T09:36:43.248Z,34.40
2019-02-24T09:39:13.056Z,34.60
2019-02-24T09:41:44.724Z,35.10
2019-02-24T09:44:13.675Z,35.20
2019-02-24T09:46:45.555Z,35.60
2019-02-24T09:49:14.526Z,35.70
2019-02-24T09:51:46.529Z,36.90
2019-02-24T09:54:15.626Z,37.60
2019-02-24T09:56:44.773Z,37.50
2019-02-24T09:59:13.632Z,37.50
2019-02-24T10:01:42.592Z,38.10
2019-02-24T10:04:11.420Z,37.60
2019-02-24T10:06:40.306Z,38.20
2019-02-24T10:09:09.272Z,38.20
2019-02-24T10:11:38.237Z,39.00
2019-02-24T10:14:07.153Z,39.20
2019-02-24T10:16:36.165Z,39.40
2019-02-24T10:19:05.182Z,39.80
2019-02-24T10:21:34.164Z,40.00
2019-02-24T10:24:03.120Z,40.70
2019-02-24T10:26:33.851Z,40.30
2019-02-24T10:29:02.838Z,40.70
2019-02-24T10:31:31.788Z,40.10
2019-02-24T10:34:00.737Z,39.90
2019-02-24T10:36:29.675Z,39.20
2019-02-24T10:38:58.629Z,40.00
2019-02-24T10:41:28.560Z,39.80
2019-02-24T10:43:58.942Z,40.50
2019-02-24T10:46:30.517Z,41.20
2019-02-24T10:49:03.248Z,41.40
2019-02-24T10:51:31.563Z,42.00
2019-02-24T10:54:00.611Z,41.70
2019-02-24T10:56:29.553Z,41.10
2019-02-24T10:58:58.540Z,42.00
2019-02-24T11:01:29.851Z,42.40
2019-02-24T11:03:58.012Z,43.40
2019-02-24T11:06:29.039Z,42.40
2019-02-24T11:09:00.398Z,42.60
2019-02-24T11:11:29.379Z,42.60
2019-02-24T11:13:58.326Z,42.80
2019-02-24T11:16:27.183Z,42.20
2019-02-24T11:18:56.139Z,43.50
2019-02-24T11:21:25.045Z,42.30
2019-02-24T11:23:55.627Z,43.50
2019-02-24T11:26:24.544Z,42.20
2019-02-24T11:28:53.524Z,43.30
2019-02-24T11:31:22.420Z,42.90
2019-02-24T11:33:51.392Z,43.00
2019-02-24T11:36:20.357Z,43.90
2019-02-24T11:38:51.320Z,44.40
2019-02-24T11:41:19.880Z,44.30
2019-02-24T11:43:48.923Z,44.40
2019-02-24T11:46:20.933Z,43.70
2019-02-24T11:48:51.795Z,43.70
2019-02-24T11:51:20.424Z,43.30
2019-02-24T11:53:49.433Z,42.50
2019-02-24T11:56:19.679Z,43.00
2019-02-24T11:58:48.843Z,43.10
2019-02-24T12:01:17.814Z,42.90
2019-02-24T12:03:48.346Z,42.70
2019-02-24T12:06:17.307Z,41.00
2019-02-24T12:08:46.219Z,38.50
2019-02-24T12:11:15.181Z,35.20
2019-02-24T12:13:44.070Z,33.20
2019-02-24T12:16:14.610Z,30.70
2019-02-24T12:18:43.575Z,28.30
2019-02-24T12:21:12.542Z,27.00
2019-02-24T12:23:42.926Z,26.40
2019-02-24T12:26:14.554Z,25.30
2019-02-24T12:28:43.535Z,24.40
2019-02-24T12:31:12.518Z,24.00
2019-02-24T12:33:41.494Z,23.50
2019-02-24T12:36:10.415Z,23.40
2019-02-24T12:38:39.356Z,22.80
2019-02-24T12:41:08.234Z,22.50
2019-02-24T12:43:37.167Z,21.70
2019-02-24T12:46:06.047Z,21.50
2019-02-24T12:48:35.043Z,21.10
2019-02-24T12:51:04.253Z,20.50
2019-02-24T12:53:33.340Z,20.50
2019-02-24T12:56:02.329Z,21.90
2019-02-24T12:58:31.784Z,22.40
2019-02-24T13:01:00.728Z,22.20
2019-02-24T13:03:29.691Z,22.80
2019-02-24T13:05:58.574Z,22.90
2019-02-24T13:08:27.647Z,23.20
2019-02-24T13:10:59.530Z,23.70
2019-02-24T13:13:28.591Z,25.10
2019-02-24T13:15:57.539Z,25.70
2019-02-24T13:18:27.955Z,25.20
2019-02-24T13:20:56.931Z,24.50
2019-02-24T13:23:25.980Z,25.00
2019-02-24T13:25:54.919Z,25.00
2019-02-24T13:28:23.829Z,24.30
2019-02-24T13:30:52.785Z,24.10
2019-02-24T13:33:21.710Z,23.70
2019-02-24T13:35:50.635Z,23.50
2019-02-24T13:38:19.639Z,23.10
2019-02-24T13:40:48.529Z,22.70
2019-02-24T13:43:19.042Z,22.10
2019-02-24T13:45:48.229Z,21.60
2019-02-24T13:48:17.107Z,21.30
2019-02-24T13:50:46.023Z,21.50
2019-02-24T13:53:14.969Z,21.50
2019-02-24T13:55:43.937Z,21.40
2019-02-24T13:58:12.875Z,20.90
2019-02-24T14:00:41.829Z,20.60
2019-02-24T14:03:10.665Z,20.30
2019-02-24T14:05:39.638Z,20.10
2019-02-24T14:08:08.589Z,20.30
2019-02-24T14:10:37.600Z,20.90
2019-02-24T14:13:06.586Z,21.70
2019-02-24T14:15:37.104Z,21.40
2019-02-24T14:18:06.052Z,21.20
2019-02-24T14:20:34.995Z,21.70
2019-02-24T14:23:04.012Z,22.10
2019-02-24T14:25:34.645Z,21.80
2019-02-24T14:28:03.629Z,21.40
2019-02-24T14:30:32.624Z,20.90
2019-02-24T14:33:01.542Z,20.50
2019-02-24T14:35:30.576Z,20.60
2019-02-24T14:38:00.958Z,20.80
2019-02-24T14:40:29.911Z,20.90
2019-02-24T14:42:58.789Z,20.50
2019-02-24T14:45:27.819Z,20.20
2019-02-24T14:47:56.805Z,20.30
2019-02-24T14:50:25.732Z,20.50
2019-02-24T14:52:54.763Z,21.10
2019-02-24T14:55:23.690Z,21.30
2019-02-24T14:57:52.568Z,21.20
2019-02-24T15:00:23.481Z,21.10
2019-02-24T15:02:52.437Z,20.50
2019-02-24T15:05:21.453Z,20.50
2019-02-24T15:07:50.340Z,20.90
2019-02-24T15:10:23.908Z,21.70
2019-02-24T15:12:52.799Z,22.50
2019-02-24T15:15:32.490Z,22.40
2019-02-24T15:17:54.472Z,22.20
2019-02-24T15:20:23.334Z,21.50
2019-02-24T15:22:52.304Z,20.70
2019-02-24T15:25:21.207Z,19.90
2019-02-24T15:27:50.144Z,19.40
2019-02-24T15:30:27.551Z,19.00
2019-02-24T15:32:56.494Z,18.70
2019-02-24T15:35:26.902Z,18.30
2019-02-24T15:37:55.902Z,18.00
2019-02-24T15:40:24.794Z,17.60
2019-02-24T15:42:53.770Z,17.40
2019-02-24T15:45:22.731Z,17.30
2019-02-24T15:47:51.606Z,16.80
2019-02-24T15:50:23.034Z,16.80
2019-02-24T15:52:52.018Z,16.70
2019-02-24T15:55:21.015Z,16.60
2019-02-24T15:57:49.898Z,16.30
2019-02-24T16:00:26.463Z,16.00
2019-02-24T16:03:01.431Z,15.80
2019-02-24T16:05:26.072Z,15.60
2019-02-24T16:07:54.954Z,15.30
2019-02-24T16:10:24.264Z,15.20
2019-02-24T16:12:53.193Z,15.00
2019-02-24T16:15:24.608Z,14.90
2019-02-24T16:17:53.546Z,14.70
2019-02-24T16:20:34.835Z,14.60
2019-02-24T16:23:04.606Z,14.50
2019-02-24T16:25:33.530Z,14.40
2019-02-24T16:28:02.595Z,14.20
2019-02-24T16:30:31.458Z,14.10
2019-02-24T16:33:00.342Z,14.00
2019-02-24T16:35:29.287Z,13.80
2019-02-24T16:37:58.207Z,13.70
2019-02-24T16:40:30.239Z,13.60
2019-02-24T16:42:59.113Z,13.50
2019-02-24T16:45:28.045Z,13.40
2019-02-24T16:47:56.983Z,13.40
2019-02-24T16:50:26.005Z,13.30
2019-02-24T16:52:54.903Z,13.10
2019-02-24T16:55:23.802Z,13.10
2019-02-24T16:57:52.679Z,12.90
2019-02-24T17:00:23.692Z,12.90
2019-02-24T17:02:52.612Z,12.80
2019-02-24T17:05:21.600Z,12.70
2019-02-24T17:07:50.605Z,12.60
2019-02-24T17:10:24.382Z,12.50
2019-02-24T17:12:53.331Z,12.40
2019-02-24T17:15:22.347Z,12.30
2019-02-24T17:17:59.259Z,12.30
2019-02-24T17:20:30.073Z,12.10
2019-02-24T17:23:01.011Z,12.10
2019-02-24T17:25:30.418Z,12.00
2019-02-24T17:27:59.374Z,11.90
2019-02-24T17:30:28.303Z,11.90
2019-02-24T17:32:59.612Z,11.80
2019-02-24T17:35:31.219Z,11.70
2019-02-24T17:38:00.335Z,11.70
2019-02-24T17:40:29.319Z,11.70
2019-02-24T17:42:58.760Z,11.60
2019-02-24T17:45:29.459Z,11.50
2019-02-24T17:47:58.536Z,11.50
2019-02-24T17:50:27.530Z,11.50
2019-02-24T17:52:56.534Z,11.40
2019-02-24T17:55:28.452Z,11.30
2019-02-24T17:58:00.215Z,11.30
2019-02-24T18:00:44.558Z,11.20
2019-02-24T18:03:13.429Z,11.20
2019-02-24T18:05:45.347Z,11.10
2019-02-24T18:08:14.330Z,11.00
2019-02-24T18:10:43.291Z,11.00
2019-02-24T18:13:12.417Z,10.90
2019-02-24T18:15:42.904Z,10.80
2019-02-24T18:18:11.822Z,10.70
2019-02-24T18:20:42.467Z,10.70
2019-02-24T18:23:12.614Z,10.60
2019-02-24T18:25:42.419Z,10.60
2019-02-24T18:28:11.288Z,10.50
2019-02-24T18:30:40.463Z,10.40
2019-02-24T18:33:09.360Z,10.30
2019-02-24T18:35:38.339Z,10.20
2019-02-24T18:38:07.232Z,10.00
2019-02-24T18:40:36.221Z,10.00
2019-02-24T18:43:06.530Z,9.90
2019-02-24T18:45:36.946Z,9.80
2019-02-24T18:48:05.794Z,9.80
2019-02-24T18:50:36.127Z,9.60
2019-02-24T18:53:06.470Z,9.60
2019-02-24T18:55:35.443Z,9.50
2019-02-24T18:58:04.576Z,9.40
2019-02-24T19:00:33.567Z,9.40
2019-02-24T19:03:02.508Z,9.30
2019-02-24T19:05:33.619Z,9.20
2019-02-24T19:08:02.661Z,9.20
2019-02-24T19:10:34.546Z,9.20
2019-02-24T19:13:03.412Z,9.20
2019-02-24T19:15:32.451Z,9.10
2019-02-24T19:18:01.320Z,9.00
2019-02-24T19:20:30.283Z,9.00
2019-02-24T19:22:59.235Z,9.00
2019-02-24T19:25:28.223Z,9.00
2019-02-24T19:27:57.138Z,8.90
2019-02-24T19:30:27.702Z,8.90
2019-02-24T19:32:56.641Z,8.90
2019-02-24T19:35:25.605Z,8.80
2019-02-24T19:37:54.519Z,8.80
2019-02-24T19:40:23.423Z,8.70
2019-02-24T19:42:52.613Z,8.60
2019-02-24T19:45:26.006Z,8.60
2019-02-24T19:47:54.930Z,8.60
2019-02-24T19:50:25.405Z,8.60
2019-02-24T19:52:54.328Z,8.70
2019-02-24T19:55:23.418Z,8.80
2019-02-24T19:57:52.362Z,8.70
2019-02-24T20:00:23.268Z,8.80
2019-02-24T20:02:52.225Z,8.80
2019-02-24T20:05:21.450Z,8.70
2019-02-24T20:07:52.211Z,8.60
2019-02-24T20:10:26.870Z,8.50
2019-02-24T20:12:55.906Z,8.30
2019-02-24T20:15:24.892Z,8.20
2019-02-24T20:17:53.794Z,8.20
2019-02-24T20:20:22.794Z,8.10
2019-02-24T20:22:53.330Z,8.00
2019-02-24T20:25:25.356Z,7.80
2019-02-24T20:27:54.267Z,7.70
2019-02-24T20:30:34.612Z,7.60
2019-02-24T20:33:03.495Z,7.50
2019-02-24T20:35:32.654Z,7.50
2019-02-24T20:38:01.532Z,7.50
2019-02-24T20:40:30.523Z,7.40
2019-02-24T20:42:59.424Z,7.40
2019-02-24T20:45:29.335Z,7.30
2019-02-24T20:47:58.568Z,7.20
2019-02-24T20:50:32.570Z,7.20
2019-02-24T20:53:01.568Z,7.10
2019-02-24T20:55:30.478Z,7.00
2019-02-24T20:57:59.566Z,6.90
2019-02-24T21:00:44.124Z,6.90
2019-02-24T21:03:14.538Z,6.90
2019-02-24T21:05:43.523Z,6.80
2019-02-24T21:08:12.411Z,6.80
2019-02-24T21:10:41.359Z,6.60
2019-02-24T21:13:10.333Z,6.60
2019-02-24T21:15:39.374Z,6.50
2019-02-24T21:18:08.300Z,6.50
2019-02-24T21:20:39.679Z,6.50
2019-02-24T21:23:08.637Z,6.30
2019-02-24T21:25:37.532Z,6.30
2019-02-24T21:28:06.457Z,6.40
2019-02-24T21:30:35.534Z,6.30
2019-02-24T21:33:04.469Z,6.30
2019-02-24T21:35:33.391Z,6.20
2019-02-24T21:38:02.426Z,6.20
2019-02-24T21:40:31.382Z,6.10
2019-02-24T21:43:00.632Z,6.00
2019-02-24T21:45:29.819Z,5.80
2019-02-24T21:47:58.729Z,5.80
2019-02-24T21:50:27.695Z,5.70
2019-02-24T21:52:56.683Z,5.80
2019-02-24T21:55:25.652Z,5.70
2019-02-24T21:57:54.591Z,5.80
2019-02-24T22:00:27.971Z,5.70
2019-02-24T22:02:58.357Z,5.70
2019-02-24T22:05:27.308Z,5.70
2019-02-24T22:07:56.210Z,5.60
2019-02-24T22:10:27.011Z,5.60
2019-02-24T22:12:55.737Z,5.50
2019-02-24T22:15:25.891Z,5.40
2019-02-24T22:17:54.810Z,5.40
2019-02-24T22:20:25.247Z,5.40
2019-02-24T22:22:54.211Z,5.30
2019-02-24T22:25:24.596Z,5.10
2019-02-24T22:27:53.496Z,5.10
2019-02-24T22:30:23.183Z,5.10
2019-02-24T22:32:52.141Z,5.20
2019-02-24T22:35:21.240Z,5.30
2019-02-24T22:37:50.177Z,5.20
2019-02-24T22:40:19.074Z,5.20
2019-02-24T22:42:48.120Z,5.10
2019-02-24T22:45:20.228Z,5.20
2019-02-24T22:47:49.146Z,5.20
2019-02-24T22:50:18.414Z,5.10
2019-02-24T22:52:49.729Z,5.10
2019-02-24T22:55:21.087Z,5.10
2019-02-24T22:57:49.935Z,5.10
2019-02-24T23:00:31.866Z,5.20
2019-02-24T23:03:00.818Z,5.20
2019-02-24T23:05:29.850Z,5.40
2019-02-24T23:07:58.763Z,5.60
2019-02-24T23:10:28.955Z,5.60
2019-02-24T23:12:57.852Z,5.80
2019-02-24T23:15:26.884Z,5.80
2019-02-24T23:17:55.800Z,5.70
2019-02-24T23:20:24.768Z,5.80
2019-02-24T23:22:53.703Z,5.60
2019-02-24T23:25:22.726Z,5.60
2019-02-24T23:27:51.579Z,5.50
2019-02-24T23:30:27.506Z,5.40
2019-02-24T23:32:56.383Z,5.40
2019-02-24T23:35:25.362Z,5.50
2019-02-24T23:37:54.274Z,5.50
2019-02-24T23:40:23.231Z,5.40
2019-02-24T23:42:52.255Z,5.50
2019-02-24T23:45:21.195Z,5.50
2019-02-24T23:47:50.086Z,5.60
2019-02-24T23:50:19.059Z,5.70
2019-02-24T23:52:48.038Z,5.90
2019-02-24T23:55:16.972Z,5.90
2019-02-24T23:57:47.329Z,5.90
